Time;durP1;ratioP1;P1;durP2;ratioP2;P2;SDS_P1;SDS_P2;PMS_P1;PMS_P2;Temp;Humidity;BMP_temperature;BMP_pressure;BME280_temperature;BME280_humidity;BME280_pressure;Samples;Min_cycle;Max_cycle;Signal;HPM_P1;HPM_P2
2022/03/04 00:02:48;;;;;;;119.40;56.08;;;;;;;-0.49;65.90;100720.69;2059280;86;27652;-65
2022/03/04 00:05:50;;;;;;;138.28;60.25;;;;;;;-0.45;65.93;100707.13;2059595;86;28756;-65
2022/03/04 00:08:52;;;;;;;142.70;59.13;;;;;;;-0.41;65.97;100715.44;2059277;86;31249;-62
2022/03/04 00:11:54;;;;;;;153.38;62.03;;;;;;;-0.36;65.99;100715.02;2059556;86;32862;-64
2022/03/04 00:14:56;;;;;;;148.05;61.70;;;;;;;-0.32;66.02;100715.89;2059288;86;30233;-63
2022/03/04 00:17:59;;;;;;;129.18;56.58;;;;;;;-0.28;66.02;100716.35;2059531;86;27686;-63
2022/03/04 00:21:02;;;;;;;121.02;53.45;;;;;;;-0.24;66.03;100720.75;2059629;86;29485;-63
2022/03/04 00:24:08;;;;;;;127.87;53.87;;;;;;;-0.19;66.09;100719.44;2059610;86;31418;-67
2022/03/04 00:27:09;;;;;;;115.37;52.17;;;;;;;-0.16;66.13;100721.63;2059608;86;33777;-64
2022/03/04 00:30:12;;;;;;;125.25;54.00;;;;;;;-0.11;66.17;100718.13;2058504;86;29999;-68
2022/03/04 00:33:14;;;;;;;116.65;50.30;;;;;;;-0.08;66.15;100720.32;2059425;86;27856;-65
2022/03/04 00:36:16;;;;;;;120.80;54.03;;;;;;;-0.04;66.10;100714.64;2059338;86;29544;-68
2022/03/04 00:39:18;;;;;;;120.05;52.98;;;;;;;0.01;66.17;100715.95;2059270;86;32297;-64
2022/03/04 00:42:20;;;;;;;124.07;53.23;;;;;;;0.04;66.28;100711.55;2045959;86;34281;-64
2022/03/04 00:45:22;;;;;;;123.02;52.93;;;;;;;0.06;66.27;100708.94;2030098;87;29977;-64
2022/03/04 00:48:24;;;;;;;111.95;50.03;;;;;;;0.08;66.30;100708.51;2033731;86;28104;-65
2022/03/04 00:51:25;;;;;;;100.80;45.43;;;;;;;0.09;66.39;100704.96;2011316;86;30028;-64
2022/03/04 00:54:27;;;;;;;96.17;43.80;;;;;;;0.11;66.45;100704.11;1998634;89;31475;-63
2022/03/04 00:57:29;;;;;;;90.42;40.58;;;;;;;0.14;66.50;100701.90;1999208;88;34211;-64
2022/03/04 01:00:31;;;;;;;79.65;38.67;;;;;;;0.17;66.55;100693.14;1999607;88;30739;-66
2022/03/04 01:03:34;;;;;;;77.00;38.95;;;;;;;0.22;66.63;100700.58;1999435;89;27719;-64
2022/03/04 01:06:36;;;;;;;80.85;39.55;;;;;;;0.25;66.67;100695.31;2009923;88;29923;-63
2022/03/04 01:09:38;;;;;;;70.90;37.28;;;;;;;0.28;66.69;100698.81;2015132;88;31448;-64
2022/03/04 01:12:40;;;;;;;76.65;37.67;;;;;;;0.32;66.67;100693.55;1999030;89;34240;-64
2022/03/04 01:15:42;;;;;;;76.55;38.08;;;;;;;0.35;66.70;100694.87;1999261;88;30832;-65
2022/03/04 01:18:43;;;;;;;79.92;37.35;;;;;;;0.40;66.71;100704.97;2000338;87;27596;-63
2022/03/04 01:21:45;;;;;;;80.62;38.33;;;;;;;0.42;66.74;100697.49;1999076;88;28491;-65
2022/03/04 01:24:47;;;;;;;80.10;37.58;;;;;;;0.47;66.81;100693.98;1999549;88;31054;-65
2022/03/04 01:27:49;;;;;;;74.82;36.75;;;;;;;0.50;66.77;100691.34;1999841;89;34326;-63
2022/03/04 01:30:51;;;;;;;78.28;39.48;;;;;;;0.53;66.82;100697.90;1999529;89;29557;-69
2022/03/04 01:33:53;;;;;;;78.05;37.78;;;;;;;0.54;66.81;100693.96;2028623;87;27655;-71
2022/03/04 01:36:55;;;;;;;80.07;38.50;;;;;;;0.61;66.86;100690.87;1984412;87;28644;-72
2022/03/04 01:39:57;;;;;;;79.67;38.88;;;;;;;0.64;66.88;100696.14;2034677;87;31062;-70
2022/03/04 01:42:59;;;;;;;80.05;37.60;;;;;;;0.65;66.87;100691.73;2036051;87;33715;-72
2022/03/04 01:46:14;;;;;;;78.90;39.03;;;;;;;0.65;66.88;100689.09;2024975;87;29618;-71
2022/03/04 01:49:16;;;;;;;;;;;;;;;0.64;66.96;100689.55;2012849;87;27838;-72
2022/03/04 01:52:20;;;;;;;80.72;38.20;;;;;;;0.63;67.01;100685.16;2021422;88;28653;-72
2022/03/04 01:55:22;;;;;;;84.03;40.28;;;;;;;0.62;67.07;100683.40;2001874;87;31122;-72
2022/03/04 01:58:24;;;;;;;78.17;39.73;;;;;;;0.63;67.14;100685.58;2003643;88;33880;-71
2022/03/04 02:01:27;;;;;;;86.45;42.43;;;;;;;0.63;67.21;100686.47;2003609;88;29541;-71
2022/03/04 02:04:28;;;;;;;85.80;40.35;;;;;;;0.64;67.29;100688.23;2003464;88;27662;-70
2022/03/04 02:07:30;;;;;;;83.62;42.23;;;;;;;0.65;67.38;100675.91;2032877;87;28699;-70
2022/03/04 02:10:32;;;;;;;93.78;43.00;;;;;;;0.65;67.41;100679.44;2032989;85;31102;-71
2022/03/04 02:13:34;;;;;;;86.60;42.48;;;;;;;0.65;67.46;100683.40;2032804;87;33749;-71
2022/03/04 02:16:45;;;;;;;85.38;41.85;;;;;;;0.66;67.57;100687.80;2032607;87;29633;-71
2022/03/04 02:19:54;;;;;;;88.10;44.30;;;;;;;0.67;67.66;100685.56;2032782;86;27987;-71
2022/03/04 02:22:55;;;;;;;101.38;43.33;;;;;;;0.67;67.74;100683.38;2032378;87;29551;-71
2022/03/04 02:25:58;;;;;;;89.10;44.75;;;;;;;0.67;67.91;100681.61;2032850;87;31134;-71
2022/03/04 02:29:00;;;;;;;91.97;46.35;;;;;;;0.69;68.09;100681.63;2034304;86;32617;-70
2022/03/04 02:32:03;;;;;;;86.80;42.58;;;;;;;0.68;68.08;100679.41;2032874;87;29606;-69
2022/03/04 02:35:05;;;;;;;96.32;44.10;;;;;;;0.68;68.16;100684.68;2032911;87;27679;-72
2022/03/04 02:38:07;;;;;;;91.30;45.25;;;;;;;0.70;68.24;100681.61;2032805;87;29484;-71
2022/03/04 02:41:09;;;;;;;91.17;44.67;;;;;;;0.71;68.25;100685.14;2032393;87;31136;-70
2022/03/04 02:44:15;;;;;;;91.30;45.92;;;;;;;0.71;68.38;100687.31;2032715;87;32980;-71
2022/03/04 02:47:16;;;;;;;96.80;46.88;;;;;;;0.71;68.41;100684.68;2036523;87;29701;-70
2022/03/04 02:50:18;;;;;;;99.67;47.05;;;;;;;0.72;68.43;100688.21;2044275;86;28390;-70
2022/03/04 02:53:20;;;;;;;101.50;47.43;;;;;;;0.71;68.46;100695.23;2031634;87;29838;-71
2022/03/04 02:56:23;;;;;;;96.15;45.60;;;;;;;0.69;68.48;100691.71;2032132;87;31146;-71
2022/03/04 02:59:25;;;;;;;90.17;44.00;;;;;;;0.69;68.62;100694.34;2032813;87;32968;-71
2022/03/04 03:02:26;;;;;;;91.28;46.50;;;;;;;0.70;68.70;100698.74;2032853;87;30432;-69
2022/03/04 03:05:28;;;;;;;97.67;47.80;;;;;;;0.72;68.78;100700.94;2033625;87;27742;-69
2022/03/04 03:08:30;;;;;;;93.45;46.45;;;;;;;0.71;68.75;100695.69;2037910;87;29461;-70
2022/03/04 03:11:32;;;;;;;92.92;44.93;;;;;;;0.70;68.83;100696.56;2039038;87;31179;-72
2022/03/04 03:14:34;;;;;;;96.97;47.65;;;;;;;0.70;68.87;100694.78;2035944;87;33896;-69
2022/03/04 03:17:35;;;;;;;94.67;45.58;;;;;;;0.70;68.92;100700.06;2030087;87;30599;-70
2022/03/04 03:20:37;;;;;;;93.07;45.40;;;;;;;0.69;68.92;100706.21;2066497;86;27732;-69
2022/03/04 03:23:39;;;;;;;101.33;47.70;;;;;;;0.69;69.04;100704.03;2034694;86;28623;-69
2022/03/04 03:26:41;;;;;;;99.03;47.20;;;;;;;0.69;69.11;100698.30;2035580;86;31804;-70
2022/03/04 03:29:42;;;;;;;102.25;48.23;;;;;;;0.70;69.16;100699.20;2060934;86;33749;-70
2022/03/04 03:32:44;;;;;;;98.55;45.63;;;;;;;0.69;69.14;100691.71;2030321;87;30645;-69
2022/03/04 03:35:46;;;;;;;98.82;47.03;;;;;;;0.69;69.19;100694.80;2010371;88;27789;-70
2022/03/04 03:38:48;;;;;;;96.90;45.58;;;;;;;0.68;69.19;100691.27;2009645;88;28638;-70
2022/03/04 03:41:50;;;;;;;93.90;45.40;;;;;;;0.68;69.25;100699.18;2010334;88;31082;-69
2022/03/04 03:44:51;;;;;;;95.57;44.25;;;;;;;0.70;69.32;100697.87;2010455;88;32967;-70
2022/03/04 03:47:54;;;;;;;90.38;45.85;;;;;;;0.71;69.34;100697.00;2010341;88;29794;-70
2022/03/04 03:50:55;;;;;;;94.92;44.33;;;;;;;0.72;69.34;100692.17;2035851;86;27592;-70
2022/03/04 03:53:57;;;;;;;91.97;43.13;;;;;;;0.71;69.36;100693.91;2042631;87;28725;-70
2022/03/04 03:56:59;;;;;;;100.02;47.40;;;;;;;0.73;69.32;100693.92;2042738;87;31196;-70
2022/03/04 04:00:01;;;;;;;89.67;42.43;;;;;;;0.70;69.32;100685.56;2042763;87;33117;-69
2022/03/04 04:03:03;;;;;;;92.42;45.65;;;;;;;0.69;69.42;100686.89;2042810;87;29771;-70
2022/03/04 04:06:04;;;;;;;91.42;44.30;;;;;;;0.72;69.38;100694.80;2043032;87;27568;-70
2022/03/04 04:09:08;;;;;;;93.75;44.70;;;;;;;0.71;69.45;100695.69;2042716;87;28821;-72
2022/03/04 04:12:11;;;;;;;94.58;46.10;;;;;;;0.70;69.40;100690.83;2042781;87;31733;-71
2022/03/04 04:15:12;;;;;;;92.75;44.67;;;;;;;0.68;69.40;100694.36;2021220;87;32981;-69
2022/03/04 04:18:14;;;;;;;92.25;45.40;;;;;;;0.66;69.47;100687.80;2014928;87;29776;-69
2022/03/04 04:21:16;;;;;;;87.53;44.63;;;;;;;0.66;69.56;100688.22;2017048;88;27705;-72
2022/03/04 04:24:18;;;;;;;81.22;43.08;;;;;;;0.65;69.62;100689.09;2017216;88;28730;-70
2022/03/04 04:27:20;;;;;;;79.07;40.48;;;;;;;0.62;69.60;100693.05;2016989;88;31099;-70
2022/03/04 04:30:22;;;;;;;86.37;43.63;;;;;;;0.63;69.68;100691.75;2016917;88;32819;-72
2022/03/04 04:33:24;;;;;;;86.92;40.75;;;;;;;0.62;69.70;100687.35;2017037;88;30431;-70
2022/03/04 04:36:26;;;;;;;82.10;40.65;;;;;;;0.64;69.81;100691.30;2017061;88;28299;-72
2022/03/04 04:39:28;;;;;;;81.37;40.58;;;;;;;0.63;69.78;100692.17;2016977;88;28739;-71
2022/03/04 04:42:30;;;;;;;84.58;41.55;;;;;;;0.65;69.82;100690.41;2017112;88;31061;-73
2022/03/04 04:45:33;;;;;;;87.00;41.42;;;;;;;0.66;69.90;100689.11;2017123;88;33808;-70
2022/03/04 04:48:35;;;;;;;83.70;40.60;;;;;;;0.65;69.81;100687.78;2022404;87;30576;-71
2022/03/04 04:51:37;;;;;;;89.28;40.85;;;;;;;0.66;69.96;100683.84;2037922;87;27632;-72
2022/03/04 04:54:39;;;;;;;85.50;43.35;;;;;;;0.69;70.03;100690.84;2062244;86;28640;-68
2022/03/04 04:57:40;;;;;;;85.75;40.98;;;;;;;0.71;70.02;100696.55;2062296;86;31352;-69
2022/03/04 05:00:53;;;;;;;85.60;41.40;;;;;;;0.72;69.98;100689.53;2062225;86;33165;-70
2022/03/04 05:03:52;;;;;;;82.10;40.15;;;;;;;0.73;70.07;100690.83;2061423;86;30365;-69
2022/03/04 05:06:54;;;;;;;83.47;41.10;;;;;;;0.75;70.05;100685.54;2062421;86;27686;-70
2022/03/04 05:09:55;;;;;;;82.02;39.58;;;;;;;0.75;70.12;100689.49;2062309;86;28640;-70
2022/03/04 05:12:57;;;;;;;79.50;40.85;;;;;;;0.77;70.08;100691.69;2062183;86;31169;-71
2022/03/04 05:15:59;;;;;;;79.87;42.00;;;;;;;0.79;70.18;100689.93;2062264;86;33115;-70
2022/03/04 05:19:00;;;;;;;83.95;41.68;;;;;;;0.81;70.15;100693.44;2048631;86;29741;-72
2022/03/04 05:22:03;;;;;;;88.87;44.23;;;;;;;0.81;70.11;100690.80;2062167;86;27761;-70
2022/03/04 05:25:06;;;;;;;87.25;43.05;;;;;;;0.82;70.17;100687.74;2062221;86;28655;-70
2022/03/04 05:28:07;;;;;;;88.75;44.13;;;;;;;0.83;70.17;100690.82;2061273;86;31897;-73
2022/03/04 05:31:09;;;;;;;85.22;43.10;;;;;;;0.83;70.18;100694.32;2061297;86;33613;-71
2022/03/04 05:34:12;;;;;;;89.07;43.30;;;;;;;0.85;70.21;100698.26;2050224;86;30744;-70
2022/03/04 05:37:14;;;;;;;89.20;44.38;;;;;;;0.85;70.17;100694.30;2032636;87;27707;-72
2022/03/04 05:40:17;;;;;;;89.07;43.85;;;;;;;0.85;70.21;100701.79;2032781;87;29528;-70
2022/03/04 05:43:18;;;;;;;94.75;46.13;;;;;;;0.87;70.27;100700.03;2032362;87;31238;-70
2022/03/04 05:46:20;;;;;;;97.02;45.73;;;;;;;0.87;70.22;100698.71;2031913;87;33094;-70
2022/03/04 05:49:22;;;;;;;92.62;44.53;;;;;;;0.89;70.22;100694.73;2051856;86;29685;-70
2022/03/04 05:52:24;;;;;;;99.52;47.55;;;;;;;0.91;70.21;100696.94;2060524;86;28484;-70
2022/03/04 05:55:26;;;;;;;93.90;48.65;;;;;;;0.92;70.20;100700.01;2059887;86;27991;-70
2022/03/04 05:58:27;;;;;;;93.80;48.10;;;;;;;0.95;70.23;100709.66;2059695;86;31884;-71
2022/03/04 06:01:30;;;;;;;101.02;50.60;;;;;;;0.96;70.24;100715.37;2059623;86;32973;-71
2022/03/04 06:04:32;;;;;;;90.53;45.95;;;;;;;0.97;70.24;100722.41;2041252;86;30840;-69
2022/03/04 06:07:35;;;;;;;99.07;45.90;;;;;;;0.98;70.31;100717.57;2059817;86;27716;-72
2022/03/04 06:10:37;;;;;;;95.07;47.13;;;;;;;1.01;70.31;100723.70;2059693;86;29547;-70
2022/03/04 06:13:39;;;;;;;92.92;47.40;;;;;;;1.05;70.32;100725.45;2053624;86;31144;-70
2022/03/04 06:16:41;;;;;;;88.78;45.55;;;;;;;1.08;70.38;100725.88;2033276;87;32973;-71
2022/03/04 06:19:44;;;;;;;92.12;45.43;;;;;;;1.14;70.41;100731.14;2056089;86;29892;-71
2022/03/04 06:22:46;;;;;;;89.95;47.45;;;;;;;1.18;70.32;100739.48;2044004;86;27730;-69
2022/03/04 06:25:48;;;;;;;94.83;48.10;;;;;;;1.22;70.31;100732.43;2033240;87;28710;-70
2022/03/04 06:28:50;;;;;;;89.32;45.70;;;;;;;1.29;70.42;100736.81;2033375;87;31828;-71
2022/03/04 06:31:52;;;;;;;92.90;46.30;;;;;;;1.38;70.43;100738.53;2033143;87;32985;-71
2022/03/04 06:34:54;;;;;;;94.58;46.25;;;;;;;1.45;70.32;100744.66;2032343;87;29638;-71
2022/03/04 06:37:55;;;;;;;94.87;45.92;;;;;;;1.52;70.28;100746.36;2033496;87;27635;-69
2022/03/04 06:40:57;;;;;;;90.92;46.08;;;;;;;1.59;70.22;100752.48;2056671;86;28638;-69
2022/03/04 06:43:59;;;;;;;102.62;52.98;;;;;;;1.65;70.23;100749.83;2033537;86;31082;-69
2022/03/04 06:47:01;;;;;;;99.45;51.83;;;;;;;1.72;70.23;100760.80;2033347;87;33676;-70
2022/03/04 06:50:04;;;;;;;96.12;50.30;;;;;;;1.78;70.16;100751.96;2033458;87;30519;-70
2022/03/04 06:53:06;;;;;;;98.35;50.25;;;;;;;1.85;70.12;100757.62;2005289;87;27731;-71
2022/03/04 06:56:08;;;;;;;93.00;50.35;;;;;;;1.91;70.05;100764.20;1977528;90;28687;-70
2022/03/04 06:59:10;;;;;;;94.83;49.42;;;;;;;1.99;70.12;100758.00;1977575;90;31049;-69
2022/03/04 07:02:12;;;;;;;101.15;50.20;;;;;;;2.07;70.09;100758.81;1977363;89;33609;-73
2022/03/04 07:05:14;;;;;;;97.67;50.60;;;;;;;2.16;69.99;100753.91;1977103;90;30438;-69
2022/03/04 07:08:16;;;;;;;90.03;47.93;;;;;;;2.25;69.98;100760.00;1976858;90;27596;-70
2022/03/04 07:11:18;;;;;;;101.82;52.60;;;;;;;2.36;69.93;100762.56;1987239;88;28665;-72
2022/03/04 07:14:24;;;;;;;93.12;49.98;;;;;;;2.49;69.85;100765.09;1992689;88;31663;-69
2022/03/04 07:17:45;;;;;;;101.87;50.23;;;;;;;2.60;69.81;100768.51;1977234;89;32977;-69
2022/03/04 07:21:02;;;;;;;98.37;51.30;;;;;;;2.72;69.64;100769.73;1977468;90;30451;-73
2022/03/04 07:24:09;;;;;;;95.67;51.15;;;;;;;2.84;69.48;100771.82;1976591;90;27765;-70
2022/03/04 07:27:14;;;;;;;103.22;51.30;;;;;;;2.97;69.44;100771.26;1977274;89;28726;-73
2022/03/04 07:30:31;;;;;;;103.12;50.33;;;;;;;3.08;69.29;100772.01;1954341;90;27786;-70
2022/03/04 07:33:52;;;;;;;95.50;50.60;;;;;;;3.16;68.97;100771.45;1976326;90;28120;-71
2022/03/04 07:36:56;;;;;;;94.75;48.40;;;;;;;3.23;68.86;100768.29;1972823;90;27687;-73
2022/03/04 07:39:57;;;;;;;90.83;49.83;;;;;;;3.32;68.79;100760.69;1977718;88;27724;-73
2022/03/04 07:43:01;;;;;;;94.58;49.30;;;;;;;3.40;68.66;100768.10;1988318;89;28489;-71
2022/03/04 07:46:03;;;;;;;97.37;50.48;;;;;;;3.48;68.59;100768.87;1993208;89;31295;-68
2022/03/04 07:49:05;;;;;;;97.33;49.33;;;;;;;3.55;68.49;100774.99;1993454;89;32961;-71
2022/03/04 07:52:07;;;;;;;94.62;49.18;;;;;;;3.59;68.27;100779.80;1985005;87;29649;-69
2022/03/04 07:55:11;;;;;;;98.45;51.88;;;;;;;3.61;68.10;100773.56;2001392;88;27218;-71
2022/03/04 07:58:13;;;;;;;104.47;51.92;;;;;;;3.61;67.95;100776.22;2001371;88;28745;-72
2022/03/04 08:01:15;;;;;;;98.15;50.28;;;;;;;3.63;67.90;100781.52;2001061;88;31953;-71
2022/03/04 08:04:17;;;;;;;106.97;51.60;;;;;;;3.69;67.95;100781.41;2000442;89;32939;-76
2022/03/04 08:07:19;;;;;;;94.95;50.25;;;;;;;3.76;67.83;100785.75;2001329;88;29929;-74
2022/03/04 08:10:20;;;;;;;94.25;50.38;;;;;;;3.83;67.67;100784.31;2001732;87;27733;-74
2022/03/04 08:13:22;;;;;;;90.75;46.55;;;;;;;3.91;67.75;100789.08;2001235;88;28844;-73
2022/03/04 08:16:25;;;;;;;96.80;48.98;;;;;;;3.99;67.52;100791.15;2001182;88;31053;-71
2022/03/04 08:19:27;;;;;;;91.63;47.78;;;;;;;4.06;67.47;100790.61;2001195;88;33778;-73
2022/03/04 08:22:29;;;;;;;98.10;48.38;;;;;;;4.16;67.32;100790.02;2001118;89;30451;-73
2022/03/04 08:25:31;;;;;;;85.55;46.75;;;;;;;4.25;67.27;100797.86;2001292;88;27700;-71
2022/03/04 08:28:33;;;;;;;87.92;46.28;;;;;;;4.33;67.01;100798.59;2000932;89;29716;-73
2022/03/04 08:31:35;;;;;;;91.42;44.35;;;;;;;4.35;66.92;100809.20;2001187;88;31020;-74
2022/03/04 08:34:37;;;;;;;94.47;49.40;;;;;;;4.38;66.90;100810.02;2001148;88;32992;-72
2022/03/04 08:37:39;;;;;;;88.60;45.00;;;;;;;4.39;66.52;100805.14;2005545;88;30041;-71
2022/03/04 08:40:41;;;;;;;84.65;44.80;;;;;;;4.37;66.60;100814.04;2028245;87;28254;-72
2022/03/04 08:43:47;;;;;;;81.95;42.85;;;;;;;4.34;66.52;100818.06;2003562;87;28699;-74
2022/03/04 08:46:48;;;;;;;76.82;41.98;;;;;;;4.30;66.56;100822.55;2000744;89;31080;-71
2022/03/04 08:49:51;;;;;;;80.57;43.10;;;;;;;4.31;66.60;100812.80;2001382;89;33749;-72
2022/03/04 08:52:53;;;;;;;73.05;42.17;;;;;;;4.37;66.44;100816.23;2004964;87;29705;-71
2022/03/04 08:55:55;;;;;;;84.32;43.60;;;;;;;4.41;66.40;100817.05;2009726;87;27671;-75
2022/03/04 08:58:57;;;;;;;79.95;42.67;;;;;;;4.48;66.40;100820.04;2009973;88;28730;-71
2022/03/04 09:01:59;;;;;;;75.90;41.45;;;;;;;4.55;66.20;100811.06;2001353;87;31041;-70
2022/03/04 09:05:02;;;;;;;78.17;41.58;;;;;;;4.75;66.46;100807.66;2000767;89;32916;-71
2022/03/04 09:08:04;;;;;;;73.22;41.90;;;;;;;5.02;66.53;100807.63;2009856;88;29644;-70
2022/03/04 09:11:06;;;;;;;76.97;40.70;;;;;;;5.25;66.09;100808.52;2010004;88;27709;-71
2022/03/04 09:14:08;;;;;;;83.10;44.30;;;;;;;5.48;65.97;100810.72;2010033;88;28732;-69
2022/03/04 09:17:09;;;;;;;71.90;43.13;;;;;;;5.75;65.81;100806.19;2029678;87;31037;-71
2022/03/04 09:20:14;;;;;;;64.55;36.30;;;;;;;6.03;65.84;100803.84;2029614;87;32955;-70
2022/03/04 09:23:15;;;;;;;70.15;37.73;;;;;;;6.28;65.14;100813.89;2000887;89;29649;-65
2022/03/04 09:26:17;;;;;;;58.87;35.13;;;;;;;6.46;64.84;100813.89;2000799;89;27849;-66
2022/03/04 09:29:20;;;;;;;61.83;32.58;;;;;;;6.66;64.81;100818.75;2000581;89;29386;-69
2022/03/04 09:32:23;;;;;;;60.17;34.48;;;;;;;6.90;64.33;100819.02;2013563;87;31063;-66
2022/03/04 09:35:25;;;;;;;53.63;29.77;;;;;;;7.12;64.22;100816.66;2060621;86;33096;-65
2022/03/04 09:38:27;;;;;;;55.05;32.08;;;;;;;7.27;63.33;100814.05;2045752;86;29639;-69
2022/03/04 09:41:30;;;;;;;54.38;31.27;;;;;;;7.36;63.47;100809.39;2029981;86;27657;-66
2022/03/04 09:44:32;;;;;;;54.58;29.98;;;;;;;7.50;63.15;100809.87;2029382;87;29606;-64
2022/03/04 09:47:34;;;;;;;59.73;36.03;;;;;;;7.51;61.83;100814.28;2028579;87;31827;-72
2022/03/04 09:50:36;;;;;;;55.03;29.75;;;;;;;7.27;61.80;100818.52;2029542;87;33040;-70
2022/03/04 09:53:38;;;;;;;50.80;28.35;;;;;;;7.15;62.12;100817.05;2029337;87;30751;-72
2022/03/04 09:56:40;;;;;;;51.33;28.77;;;;;;;7.15;62.19;100811.25;2029595;86;27693;-67
2022/03/04 09:59:43;;;;;;;48.25;28.65;;;;;;;7.19;62.22;100808.51;2029519;87;28832;-65
2022/03/04 10:02:45;;;;;;;52.38;28.55;;;;;;;7.32;62.26;100809.05;2046875;86;31853;-71
2022/03/04 10:05:56;;;;;;;49.15;29.30;;;;;;;7.47;61.76;100819.28;2061454;86;34171;-65
2022/03/04 10:08:58;;;;;;;52.35;31.90;;;;;;;7.38;61.12;100824.41;2061825;86;29725;-67
2022/03/04 10:12:05;;;;;;;63.83;38.17;;;;;;;7.25;61.28;100831.00;2061968;86;27729;-76
2022/03/04 10:15:10;;;;;;;51.15;26.90;;;;;;;6.96;60.23;100828.63;2061567;86;28849;-67
2022/03/04 10:18:12;;;;;;;49.42;28.50;;;;;;;6.68;60.31;100836.00;2061717;86;31212;-68
2022/03/04 10:21:17;;;;;;;59.63;30.23;;;;;;;6.37;60.24;100830.95;2061783;86;32948;-68
2022/03/04 10:24:30;;;;;;;50.83;27.77;;;;;;;6.06;61.10;100840.12;2061859;86;29172;-69
2022/03/04 10:27:34;;;;;;;50.50;30.00;;;;;;;5.89;60.88;100836.01;2034497;86;27577;-70
2022/03/04 10:30:36;;;;;;;53.92;29.02;;;;;;;5.80;61.67;100836.19;2031944;87;28927;-74
2022/03/04 10:33:38;;;;;;;53.58;28.30;;;;;;;5.82;61.52;100842.35;2052154;86;30526;-73
2022/03/04 10:36:54;;;;;;;48.33;27.02;;;;;;;5.76;61.38;100842.50;2000542;89;33813;-67
2022/03/04 10:40:21;;;;;;;47.23;27.73;;;;;;;5.68;61.55;100836.45;2000830;89;30433;-66
2022/03/04 10:43:30;;;;;;;46.30;27.37;;;;;;;5.57;61.47;100836.66;1951201;89;27781;-75
2022/03/04 10:46:59;;;;;;;46.15;27.42;;;;;;;5.47;61.82;100838.62;2000757;88;28677;-68
2022/03/04 10:50:11;;;;;;;49.25;27.15;;;;;;;5.41;62.04;100833.45;2000815;88;31091;-66
2022/03/04 10:53:17;;;;;;;44.18;25.02;;;;;;;5.34;61.97;100832.70;2006757;87;33033;-74
2022/03/04 10:56:50;;;;;;;46.48;25.68;;;;;;;5.26;62.04;100841.26;2000947;88;29716;-75
2022/03/04 10:59:59;;;;;;;42.67;26.05;;;;;;;5.22;62.30;100843.10;2001505;89;27710;-76
2022/03/04 11:03:16;;;;;;;44.65;25.55;;;;;;;5.21;62.37;100839.16;2001705;87;29363;-75
2022/03/04 11:06:45;;;;;;;45.00;26.30;;;;;;;5.16;62.07;100834.80;2001471;89;31032;-72
2022/03/04 11:09:49;;;;;;;42.88;24.77;;;;;;;5.06;62.19;100839.84;2001102;89;33122;-67
2022/03/04 11:12:53;;;;;;;45.28;25.25;;;;;;;5.02;62.40;100844.34;2001377;89;29789;-75
2022/03/04 11:15:55;;;;;;;49.50;29.18;;;;;;;5.08;62.42;100842.48;2001615;89;27751;-75
2022/03/04 11:18:57;;;;;;;49.38;26.80;;;;;;;5.05;62.48;100840.74;2001334;89;28116;-68
2022/03/04 11:21:59;;;;;;;45.28;25.52;;;;;;;4.99;62.27;100845.72;2001020;89;31107;-75
2022/03/04 11:25:05;;;;;;;50.98;26.60;;;;;;;4.91;62.62;100848.97;2001236;89;32970;-67
2022/03/04 11:28:17;;;;;;;47.85;26.35;;;;;;;4.89;62.74;100845.46;2000563;89;29809;-70
2022/03/04 11:31:22;;;;;;;48.13;27.55;;;;;;;4.90;62.97;100844.99;2007457;87;27722;-74
2022/03/04 11:34:40;;;;;;;47.23;26.52;;;;;;;4.87;62.76;100845.94;2029417;87;29616;-67
2022/03/04 11:37:55;;;;;;;43.90;24.87;;;;;;;4.82;62.73;100847.78;2002039;88;31324;-78
2022/03/04 11:40:55;;;;;;;46.55;26.15;;;;;;;4.83;62.78;100846.45;1987550;88;33292;-72
2022/03/04 11:44:08;;;;;;;38.75;22.80;;;;;;;4.86;62.79;100846.84;1948224;89;29646;-75
2022/03/04 11:47:13;;;;;;;38.73;23.45;;;;;;;5.00;62.98;100845.28;1947495;91;27772;-71
2022/03/04 11:50:32;;;;;;;44.53;25.05;;;;;;;5.25;62.83;100835.52;1976898;90;29543;-72
2022/03/04 11:53:33;;;;;;;35.85;20.48;;;;;;;5.45;63.01;100833.83;1975969;88;32097;-71
2022/03/04 11:56:52;;;;;;;34.30;20.85;;;;;;;5.58;62.18;100836.66;1949061;91;33673;-67
2022/03/04 12:00:20;;;;;;;33.50;19.70;;;;;;;5.71;62.14;100828.42;1949316;91;30557;-73
2022/03/04 12:03:23;;;;;;;33.42;19.92;;;;;;;5.89;62.53;100829.80;1973846;90;28358;-72
2022/03/04 12:06:25;;;;;;;35.17;20.37;;;;;;;6.08;62.02;100827.19;1976797;90;28713;-73
2022/03/04 12:09:32;;;;;;;34.90;18.95;;;;;;;6.16;62.06;100833.67;1976743;90;31040;-72
2022/03/04 12:12:34;;;;;;;28.25;18.17;;;;;;;6.29;61.76;100832.08;1977032;90;33980;-68
2022/03/04 12:15:42;;;;;;;27.02;17.75;;;;;;;6.36;61.68;100836.33;2057084;86;29744;-68
2022/03/04 12:18:45;;;;;;;30.02;17.50;;;;;;;6.39;61.33;100833.60;2059908;86;28232;-67
2022/03/04 12:21:47;;;;;;;35.73;22.10;;;;;;;6.43;61.36;100833.95;2052733;86;28659;-67
2022/03/04 12:24:56;;;;;;;45.67;26.17;;;;;;;6.46;61.19;100840.52;2024609;87;31036;-67
2022/03/04 12:27:57;;;;;;;26.97;17.87;;;;;;;6.40;60.25;100835.36;1999097;87;32961;-72
2022/03/04 12:31:08;;;;;;;24.63;17.15;;;;;;;6.22;59.89;100831.31;2008966;87;29760;-73
2022/03/04 12:34:22;;;;;;;21.50;14.18;;;;;;;6.06;60.58;100834.80;2033356;87;27804;-72
2022/03/04 12:37:25;;;;;;;22.33;14.83;;;;;;;5.94;60.39;100837.23;2033524;87;28789;-68
2022/03/04 12:40:28;;;;;;;24.18;15.18;;;;;;;5.88;60.74;100839.58;2033262;87;31950;-74
2022/03/04 12:43:30;;;;;;;25.60;16.48;;;;;;;5.82;60.64;100844.16;1989834;88;33177;-68
2022/03/04 12:46:41;;;;;;;26.73;15.98;;;;;;;5.71;60.67;100845.23;2033385;87;29790;-73
2022/03/04 12:49:46;;;;;;;28.55;17.12;;;;;;;5.63;60.74;100844.06;2033139;87;27698;-67
2022/03/04 12:52:48;;;;;;;27.25;16.35;;;;;;;5.48;60.48;100846.59;2033385;87;28708;-69
2022/03/04 12:55:59;;;;;;;25.43;16.62;;;;;;;5.37;60.86;100843.28;2031972;87;30525;-72
2022/03/04 12:59:05;;;;;;;27.77;15.63;;;;;;;5.30;61.03;100845.61;2032839;86;33014;-70
2022/03/04 13:02:06;;;;;;;23.65;16.10;;;;;;;5.16;60.81;100850.73;2010227;87;31474;-68
2022/03/04 13:05:09;;;;;;;45.80;22.55;;;;;;;5.05;61.08;100856.67;2032568;87;27786;-66
2022/03/04 13:08:16;;;;;;;26.25;14.73;;;;;;;4.98;61.14;100855.91;2032741;87;29467;-73
2022/03/04 13:11:26;;;;;;;30.92;19.25;;;;;;;4.88;61.11;100850.34;2031744;87;31929;-74
2022/03/04 13:14:28;;;;;;;28.98;17.07;;;;;;;4.84;61.61;100852.19;2030861;87;33751;-66
2022/03/04 13:17:29;;;;;;;28.92;17.65;;;;;;;4.79;61.61;100854.03;2003708;88;30739;-74
2022/03/04 13:20:32;;;;;;;29.12;17.10;;;;;;;4.74;61.82;100845.72;2003429;88;27789;-73
2022/03/04 13:23:36;;;;;;;33.23;18.15;;;;;;;4.68;61.94;100850.22;2004126;87;29377;-73
2022/03/04 13:26:48;;;;;;;28.25;16.00;;;;;;;4.66;61.99;100851.16;2003977;88;31146;-73
2022/03/04 13:29:58;;;;;;;27.93;16.27;;;;;;;4.63;62.15;100859.16;2032899;86;32947;-68
2022/03/04 13:33:00;;;;;;;25.92;16.05;;;;;;;4.63;62.29;100857.84;2032632;87;29644;-72
2022/03/04 13:36:03;;;;;;;25.25;14.73;;;;;;;4.65;62.30;100864.00;2032931;87;27857;-68
2022/03/04 13:39:21;;;;;;;25.90;15.90;;;;;;;4.61;62.37;100867.59;2031851;87;28701;-73
2022/03/04 13:42:27;;;;;;;28.27;16.65;;;;;;;4.59;62.50;100870.29;2031914;87;31952;-72
2022/03/04 13:45:33;;;;;;;32.40;18.67;;;;;;;4.54;62.62;100870.36;2032457;87;33778;-68
2022/03/04 13:48:34;;;;;;;26.07;15.85;;;;;;;4.52;62.65;100869.94;2032201;87;29698;-69
2022/03/04 13:51:36;;;;;;;24.65;15.28;;;;;;;4.55;62.90;100870.77;2032234;86;27783;-73
2022/03/04 13:55:03;;;;;;;27.93;15.70;;;;;;;4.57;62.96;100869.43;2035192;87;28811;-70
2022/03/04 13:58:19;;;;;;;25.62;15.85;;;;;;;4.60;63.07;100865.41;2037799;87;31898;-73
2022/03/04 14:01:22;;;;;;;27.48;17.55;;;;;;;4.61;63.02;100870.25;2038852;87;33096;-74
2022/03/04 14:04:24;;;;;;;24.80;15.53;;;;;;;4.63;63.33;100866.69;2038987;87;29647;-68
2022/03/04 14:07:26;;;;;;;24.47;15.53;;;;;;;4.68;63.18;100866.15;2038803;87;27733;-68